Time;durP1;ratioP1;P1;durP2;ratioP2;P2;SDS_P1;SDS_P2;PMS_P1;PMS_P2;Temp;Humidity;BMP_temperature;BMP_pressure;BME280_temperature;BME280_humidity;BME280_pressure;Samples;Min_cycle;Max_cycle;Signal;HPM_P1;HPM_P2
2021/04/13 00:00:28;;;;;;;28.90;17.05;;;;;;;0.65;100.00;97027.78;1016183;29;20501;-61
2021/04/13 00:01:18;;;;;;;29.23;17.00;;;;;;;0.67;100.00;97030.31;1016204;29;20016;-60
2021/04/13 00:01:48;;;;;;;26.88;16.08;;;;;;;0.69;100.00;97031.06;1028407;28;20026;-60
2021/04/13 00:02:23;;;;;;;28.67;17.10;;;;;;;0.68;100.00;97032.84;1036048;28;20496;-61
2021/04/13 00:02:54;;;;;;;30.00;18.35;;;;;;;0.68;100.00;97035.47;1028078;28;20039;-61
2021/04/13 00:03:25;;;;;;;30.75;17.75;;;;;;;0.68;100.00;97037.22;1032058;28;20018;-60
2021/04/13 00:04:06;;;;;;;30.80;18.65;;;;;;;0.65;100.00;97032.19;1023861;28;20367;-60
2021/04/13 00:04:37;;;;;;;29.55;18.23;;;;;;;0.59;100.00;97012.44;1024087;28;20015;-60
2021/04/13 00:05:10;;;;;;;27.42;16.48;;;;;;;0.66;100.00;97024.25;1031941;28;20022;-60
2021/04/13 00:05:44;;;;;;;33.53;17.48;;;;;;;0.68;100.00;97032.84;1020075;29;20170;-60
2021/04/13 00:06:32;;;;;;;28.50;18.17;;;;;;;0.71;100.00;97031.81;1027897;28;20452;-60
2021/04/13 00:07:03;;;;;;;31.63;18.02;;;;;;;0.71;100.00;97023.97;1028049;28;20023;-61
2021/04/13 00:07:35;;;;;;;29.60;18.13;;;;;;;0.73;100.00;97027.34;1020063;29;20498;-62
2021/04/13 00:08:17;;;;;;;27.42;17.88;;;;;;;0.74;100.00;97031.66;1020096;29;20020;-60
2021/04/13 00:08:51;;;;;;;29.73;17.73;;;;;;;0.73;100.00;97038.66;1016150;29;20019;-61
2021/04/13 00:09:23;;;;;;;28.52;17.05;;;;;;;0.68;100.00;97026.75;1018292;29;20490;-61
2021/04/13 00:09:55;;;;;;;28.92;16.42;;;;;;;0.68;100.00;97030.22;1024006;29;20027;-60
2021/04/13 00:10:43;;;;;;;28.63;17.85;;;;;;;0.63;100.00;97037.50;1024922;28;20019;-60
2021/04/13 00:11:14;;;;;;;29.40;17.45;;;;;;;0.62;100.00;97037.56;1032092;28;20073;-60
2021/04/13 00:11:46;;;;;;;29.05;17.17;;;;;;;0.58;100.00;97020.41;1028066;28;20066;-61
2021/04/13 00:12:21;;;;;;;28.67;17.85;;;;;;;0.68;100.00;97037.22;1024006;28;20019;-61
2021/04/13 00:12:52;;;;;;;28.58;17.05;;;;;;;0.67;100.00;97030.31;1028119;28;20427;-60
2021/04/13 00:13:23;;;;;;;28.17;18.20;;;;;;;0.67;100.00;97035.53;1024003;29;20047;-61
2021/04/13 00:13:56;;;;;;;28.77;17.52;;;;;;;0.67;100.00;97028.53;1027855;28;20118;-59
2021/04/13 00:14:28;;;;;;;30.58;19.30;;;;;;;0.68;100.00;97026.75;1016120;29;20487;-61
2021/04/13 00:15:03;;;;;;;31.58;17.52;;;;;;;0.64;100.00;97028.72;1023923;29;20054;-60
2021/04/13 00:15:38;;;;;;;29.17;16.90;;;;;;;0.68;100.00;97027.63;1024164;29;20466;-60
2021/04/13 00:16:14;;;;;;;29.50;17.77;;;;;;;0.69;100.00;97034.50;1027976;28;20073;-59
2021/04/13 00:16:46;;;;;;;29.95;17.33;;;;;;;0.70;100.00;97030.97;1031870;28;20024;-59
2021/04/13 00:17:19;;;;;;;30.15;17.92;;;;;;;0.69;100.00;97028.44;1031973;28;20022;-61
2021/04/13 00:17:50;;;;;;;30.17;18.38;;;;;;;0.68;100.00;97026.75;1032047;28;20018;-60
2021/04/13 00:18:25;;;;;;;30.38;18.30;;;;;;;0.68;100.00;97027.63;1032006;28;20057;-61
2021/04/13 00:18:56;;;;;;;30.70;19.15;;;;;;;0.68;100.00;97034.59;1031840;28;20022;-60
2021/04/13 00:19:30;;;;;;;28.67;18.45;;;;;;;0.71;100.00;97035.25;1027889;28;20488;-61
2021/04/13 00:20:02;;;;;;;31.17;18.25;;;;;;;0.70;100.00;97030.97;1024118;29;20015;-60
2021/04/13 00:20:47;;;;;;;29.85;18.05;;;;;;;0.64;100.00;97026.09;1027975;28;20119;-61
2021/04/13 00:21:23;;;;;;;31.65;17.63;;;;;;;0.66;100.00;97032.09;1032030;28;20114;-60
2021/04/13 00:21:54;;;;;;;31.10;18.13;;;;;;;0.67;100.00;97030.31;1026966;28;20070;-60
2021/04/13 00:22:25;;;;;;;31.67;18.13;;;;;;;0.66;100.00;97028.63;1027965;28;20113;-61
2021/04/13 00:22:56;;;;;;;29.30;18.35;;;;;;;0.68;100.00;97031.97;1023785;29;20102;-60
2021/04/13 00:23:28;;;;;;;31.65;19.13;;;;;;;0.65;100.00;97022.56;1023958;29;20461;-61
2021/04/13 00:24:02;;;;;;;31.85;19.13;;;;;;;0.68;100.00;97027.63;1019480;29;20036;-61
2021/04/13 00:24:33;;;;;;;32.53;18.73;;;;;;;0.65;100.00;97037.41;1020068;29;20027;-60
2021/04/13 00:25:05;;;;;;;32.92;18.65;;;;;;;0.67;100.00;97035.53;1027790;28;20105;-61
2021/04/13 00:25:38;;;;;;;29.70;18.02;;;;;;;0.69;100.00;97033.69;1032036;28;20015;-59
2021/04/13 00:26:10;;;;;;;31.30;18.98;;;;;;;0.71;100.00;97029.19;1028059;28;20033;-60
2021/04/13 00:26:46;;;;;;;28.65;17.48;;;;;;;0.72;100.00;97029.13;1023955;28;20050;-59
2021/04/13 00:27:16;;;;;;;32.05;18.35;;;;;;;0.72;100.00;97028.28;1028171;28;20512;-60
2021/04/13 00:27:48;;;;;;;30.67;18.38;;;;;;;0.75;100.00;97028.94;1029968;28;20023;-61
2021/04/13 00:28:21;;;;;;;32.95;18.95;;;;;;;0.74;100.00;97031.66;1022271;29;20043;-61
2021/04/13 00:28:53;;;;;;;30.38;17.70;;;;;;;0.74;100.00;97031.66;1026041;29;20015;-60
2021/04/13 00:29:26;;;;;;;30.48;18.38;;;;;;;0.75;100.00;97030.72;1034389;28;20018;-62
2021/04/13 00:30:07;;;;;;;34.03;18.85;;;;;;;0.69;100.00;97028.44;1034735;28;20014;-61
2021/04/13 00:30:47;;;;;;;29.05;18.10;;;;;;;0.72;100.00;97034.34;1026569;29;20015;-62
2021/04/13 00:32:09;;;;;;;30.05;16.77;;;;;;;0.69;100.00;97018.00;1034603;28;20021;-60
2021/04/13 00:32:47;;;;;;;32.17;18.42;;;;;;;0.69;100.00;97029.28;1031003;28;20018;-59
2021/04/13 00:33:21;;;;;;;30.38;17.83;;;;;;;0.70;100.00;97030.16;1030763;28;20018;-61
2021/04/13 00:33:54;;;;;;;34.13;18.50;;;;;;;0.66;100.00;97032.09;1031250;28;20037;-60
2021/04/13 00:34:32;;;;;;;33.65;19.27;;;;;;;0.71;100.00;97032.66;1027936;28;20015;-60
2021/04/13 00:35:47;;;;;;;30.88;18.30;;;;;;;0.69;100.00;97031.06;1030706;28;20025;-62
2021/04/13 00:36:18;;;;;;;32.72;18.20;;;;;;;0.62;100.00;97012.28;1031977;28;20026;-60
2021/04/13 00:36:50;;;;;;;32.22;18.92;;;;;;;0.68;100.00;97027.63;1020004;29;20023;-60
2021/04/13 00:37:25;;;;;;;33.67;19.45;;;;;;;0.77;100.00;97033.22;1027871;28;20086;-61
2021/04/13 00:38:16;;;;;;;32.53;18.33;;;;;;;0.67;100.00;97027.69;1032053;28;20500;-60
2021/04/13 00:38:48;;;;;;;30.88;17.30;;;;;;;0.65;100.00;97032.19;1031965;28;20037;-60
2021/04/13 00:39:27;;;;;;;35.72;19.48;;;;;;;0.69;100.00;97029.28;1031948;28;20113;-60
2021/04/13 00:40:17;;;;;;;31.42;17.90;;;;;;;0.72;100.00;97028.28;1031990;28;20021;-61
2021/04/13 00:40:48;;;;;;;33.50;18.73;;;;;;;0.71;100.00;97032.66;1031904;28;20090;-61
2021/04/13 00:41:22;;;;;;;33.55;19.02;;;;;;;0.72;100.00;97029.13;1031950;28;20022;-60
2021/04/13 00:42:00;;;;;;;32.90;18.80;;;;;;;0.75;100.00;97028.13;1023778;29;20520;-60
2021/04/13 00:42:32;;;;;;;32.60;18.65;;;;;;;0.75;100.00;97028.13;1031819;28;20086;-60
2021/04/13 00:43:02;;;;;;;31.40;18.80;;;;;;;0.72;100.00;97030.91;1027921;28;20011;-61
2021/04/13 00:43:34;;;;;;;32.33;19.27;;;;;;;0.67;100.00;97030.31;1035783;28;20102;-61
2021/04/13 00:44:07;;;;;;;36.63;21.25;;;;;;;0.69;100.00;97037.13;1031814;28;20018;-60
2021/04/13 00:44:47;;;;;;;33.50;19.77;;;;;;;0.74;100.00;97029.88;1023955;28;20070;-60
2021/04/13 00:45:22;;;;;;;32.80;18.20;;;;;;;0.78;100.00;97033.13;1027909;28;20058;-60
2021/04/13 00:45:53;;;;;;;31.70;18.38;;;;;;;0.77;100.00;97036.69;1027804;28;20038;-60
2021/04/13 00:46:27;;;;;;;30.17;18.17;;;;;;;0.76;100.00;97032.41;1020086;29;20087;-61
2021/04/13 00:47:02;;;;;;;32.35;19.02;;;;;;;0.75;100.00;97038.56;1019885;29;20019;-61
2021/04/13 00:47:35;;;;;;;31.20;19.13;;;;;;;0.72;100.00;97033.50;1027940;28;20026;-60
2021/04/13 00:48:06;;;;;;;34.42;19.35;;;;;;;0.71;100.00;97034.44;1031842;28;20018;-60
2021/04/13 00:48:39;;;;;;;32.08;19.48;;;;;;;0.72;100.00;97036.97;1027869;28;20081;-61
2021/04/13 00:49:10;;;;;;;32.17;18.83;;;;;;;0.73;100.00;97036.03;1023848;28;20032;-60
2021/04/13 00:49:46;;;;;;;37.47;20.83;;;;;;;0.75;100.00;97033.34;1028023;28;20019;-59
2021/04/13 00:50:32;;;;;;;33.38;19.98;;;;;;;0.77;100.00;97031.47;1027806;28;20022;-60
2021/04/13 00:51:07;;;;;;;34.78;20.15;;;;;;;0.74;100.00;97031.66;1023853;29;20077;-61
2021/04/13 00:51:47;;;;;;;34.00;19.73;;;;;;;0.73;100.00;97037.78;1027906;28;20023;-60
2021/04/13 00:52:19;;;;;;;40.13;22.20;;;;;;;0.70;100.00;97040.59;1035942;28;20036;-61
2021/04/13 00:52:54;;;;;;;34.80;19.67;;;;;;;0.71;100.00;97035.25;1035954;28;20033;-61
2021/04/13 00:53:25;;;;;;;37.15;21.77;;;;;;;0.73;100.00;97032.56;1023795;28;20023;-60
2021/04/13 00:54:00;;;;;;;36.05;21.25;;;;;;;0.73;100.00;97032.56;1023693;29;20030;-60
2021/04/13 00:54:33;;;;;;;37.90;21.20;;;;;;;0.74;100.00;97036.88;1019952;29;20035;-61
2021/04/13 00:55:07;;;;;;;38.00;20.95;;;;;;;0.71;100.00;97031.81;1023761;29;20019;-60
2021/04/13 00:55:41;;;;;;;37.95;21.00;;;;;;;0.67;100.00;97027.69;1023903;29;20019;-60
2021/04/13 00:56:13;;;;;;;38.65;20.85;;;;;;;0.67;100.00;97038.16;1025159;28;20023;-61
2021/04/13 00:56:44;;;;;;;35.63;20.95;;;;;;;0.65;100.00;97033.00;1023818;29;20205;-60
2021/04/13 00:57:25;;;;;;;36.03;20.95;;;;;;;0.64;100.00;97036.53;1031899;28;20044;-60
2021/04/13 00:58:10;;;;;;;34.22;19.95;;;;;;;0.65;100.00;97029.56;1027935;28;20025;-60
2021/04/13 00:58:43;;;;;;;35.92;19.92;;;;;;;0.68;100.00;97031.97;1031847;28;20049;-61
2021/04/13 00:59:24;;;;;;;34.80;20.27;;;;;;;0.67;100.00;97027.69;1023732;28;20030;-61
2021/04/13 00:59:55;;;;;;;33.53;19.88;;;;;;;0.68;100.00;97037.22;1019925;29;20533;-60
2021/04/13 01:00:28;;;;;;;34.70;19.95;;;;;;;0.64;100.00;97031.31;1020069;29;20024;-59
2021/04/13 01:01:05;;;;;;;32.13;19.35;;;;;;;0.64;100.00;97033.09;1023876;29;20031;-61
2021/04/13 01:01:38;;;;;;;35.45;20.67;;;;;;;0.60;100.00;97036.81;1027978;28;20015;-61
2021/04/13 01:02:11;;;;;;;32.50;19.48;;;;;;;0.56;100.00;97033.53;1027872;28;20058;-60
2021/04/13 01:02:42;;;;;;;35.22;20.35;;;;;;;0.58;100.00;97036.06;1027682;28;20089;-60
2021/04/13 01:03:14;;;;;;;29.80;18.70;;;;;;;0.55;100.00;97031.84;1035892;28;20064;-59
2021/04/13 01:03:47;;;;;;;30.20;19.17;;;;;;;0.61;100.00;97034.13;1035677;28;20014;-59
2021/04/13 01:04:20;;;;;;;31.58;19.65;;;;;;;0.61;100.00;97035.88;1023795;29;20031;-59
2021/04/13 01:04:56;;;;;;;34.90;20.27;;;;;;;0.61;100.00;97033.25;1031705;28;20109;-61
2021/04/13 01:05:38;;;;;;;32.97;19.30;;;;;;;0.52;100.00;97032.88;1030265;28;20073;-62
2021/04/13 01:06:22;;;;;;;36.25;20.77;;;;;;;0.56;100.00;97034.38;1027832;28;20019;-59
2021/04/13 01:07:07;;;;;;;33.92;19.80;;;;;;;0.56;100.00;97037.00;1031714;28;20022;-60
2021/04/13 01:07:41;;;;;;;30.88;18.13;;;;;;;0.57;100.00;97040.44;1027928;28;20123;-60
2021/04/13 01:08:16;;;;;;;32.13;18.08;;;;;;;0.58;100.00;97031.69;1031928;28;20018;-60
2021/04/13 01:08:47;;;;;;;31.02;18.10;;;;;;;0.57;100.00;97035.22;1023729;28;20019;-60
2021/04/13 01:09:21;;;;;;;31.02;19.27;;;;;;;0.57;100.00;97037.81;1023833;29;20473;-60
2021/04/13 01:09:52;;;;;;;36.00;18.85;;;;;;;0.53;100.00;97034.53;1023871;29;20011;-60
2021/04/13 01:10:30;;;;;;;29.15;17.65;;;;;;;0.53;100.00;97029.31;1019890;29;20020;-60
2021/04/13 01:11:19;;;;;;;27.85;17.88;;;;;;;0.54;100.00;97038.00;1019743;29;20011;-60
2021/04/13 01:12:02;;;;;;;32.38;18.27;;;;;;;0.58;100.00;97042.13;1027901;28;20019;-61
2021/04/13 01:12:37;;;;;;;31.70;17.63;;;;;;;0.54;100.00;97032.75;1027817;28;20512;-60
2021/04/13 01:13:10;;;;;;;32.00;19.13;;;;;;;0.54;100.00;97040.59;1027731;28;20570;-60
2021/04/13 01:13:53;;;;;;;29.80;17.90;;;;;;;0.50;100.00;97028.66;1027684;28;20277;-59
2021/04/13 01:14:26;;;;;;;31.75;18.63;;;;;;;0.42;100.00;97018.66;1027758;28;20022;-61
2021/04/13 01:14:57;;;;;;;31.77;17.95;;;;;;;0.54;100.00;97035.38;1035630;28;20408;-60
2021/04/13 01:15:28;;;;;;;31.60;18.45;;;;;;;0.56;100.00;97031.78;1027803;28;20011;-60
2021/04/13 01:15:59;;;;;;;35.55;19.90;;;;;;;0.59;100.00;97035.13;1031764;28;20038;-60
2021/04/13 01:16:51;;;;;;;30.73;18.98;;;;;;;0.53;100.00;97024.09;1027812;28;20042;-60
2021/04/13 01:17:23;;;;;;;30.42;18.95;;;;;;;0.58;100.00;97034.28;1027679;28;20509;-60
2021/04/13 01:17:54;;;;;;;29.73;17.98;;;;;;;0.58;100.00;97036.06;1031855;28;20581;-60
2021/04/13 01:18:32;;;;;;;32.42;18.88;;;;;;;0.54;100.00;97036.25;1027829;28;20019;-60
2021/04/13 01:19:14;;;;;;;30.48;18.27;;;;;;;0.56;100.00;97029.16;1027718;28;20018;-60
2021/04/13 01:19:57;;;;;;;33.70;18.92;;;;;;;0.58;100.00;97029.06;1027845;28;20015;-61
2021/04/13 01:20:35;;;;;;;32.65;18.25;;;;;;;0.58;100.00;97036.06;1023839;29;20404;-61
2021/04/13 01:21:23;;;;;;;34.03;18.33;;;;;;;0.55;100.00;97031.84;1023754;29;20106;-60
2021/04/13 01:22:01;;;;;;;31.85;18.15;;;;;;;0.53;100.00;97031.09;1027775;28;20504;-60
2021/04/13 01:22:40;;;;;;;30.42;18.17;;;;;;;0.54;100.00;97032.75;1031817;28;20011;-60
2021/04/13 01:23:17;;;;;;;32.65;18.63;;;;;;;0.54;100.00;97033.63;1027661;28;20018;-59
2021/04/13 01:23:53;;;;;;;29.75;17.90;;;;;;;0.54;100.00;97033.63;1023573;29;20046;-59
2021/04/13 01:24:29;;;;;;;37.75;18.33;;;;;;;0.53;100.00;97037.16;1023907;29;20458;-60
2021/04/13 01:25:01;;;;;;;29.83;17.58;;;;;;;0.51;100.00;97032.97;1023855;29;20510;-60
2021/04/13 01:25:34;;;;;;;33.20;19.27;;;;;;;0.51;100.00;97030.34;1021376;29;20016;-60
2021/04/13 01:26:05;;;;;;;29.50;17.65;;;;;;;0.51;100.00;97031.19;1019810;29;20074;-60
2021/04/13 01:26:39;;;;;;;31.20;18.05;;;;;;;0.53;100.00;97029.31;1027930;28;20488;-61
2021/04/13 01:27:11;;;;;;;30.13;17.85;;;;;;;0.55;100.00;97029.25;1031731;28;20011;-60
2021/04/13 01:27:53;;;;;;;28.58;17.65;;;;;;;0.53;100.00;97036.31;1039773;28;20068;-60
2021/04/13 01:28:27;;;;;;;29.40;17.65;;;;;;;0.53;100.00;97034.53;1036030;28;20421;-60
2021/04/13 01:28:57;;;;;;;31.20;17.95;;;;;;;0.55;100.00;97040.53;1033215;28;20273;-61
2021/04/13 01:29:29;;;;;;;28.10;17.48;;;;;;;0.53;100.00;97037.16;1023741;28;20181;-60
2021/04/13 01:30:11;;;;;;;30.63;18.23;;;;;;;0.53;100.00;97034.53;1027589;28;20026;-60
2021/04/13 01:30:45;;;;;;;31.70;18.95;;;;;;;0.57;100.00;97032.59;1027715;28;20027;-61
2021/04/13 01:32:09;;;;;;;29.80;17.30;;;;;;;0.53;100.00;97038.94;1019734;29;20450;-60
2021/04/13 01:32:39;;;;;;;28.75;18.13;;;;;;;0.54;100.00;97036.25;1015931;29;20020;-60
2021/04/13 01:33:17;;;;;;;30.40;18.02;;;;;;;0.46;100.00;97042.84;1027647;28;20019;-59
2021/04/13 01:33:52;;;;;;;28.23;17.70;;;;;;;0.45;100.00;97043.75;1023536;29;20095;-60
2021/04/13 01:34:30;;;;;;;30.33;18.25;;;;;;;0.49;100.00;97034.81;1027657;28;20026;-60
2021/04/13 01:35:09;;;;;;;29.17;17.60;;;;;;;0.52;100.00;97045.09;1031620;28;20436;-60
2021/04/13 01:35:46;;;;;;;30.80;17.50;;;;;;;0.52;100.00;97037.25;1023219;28;20038;-59
2021/04/13 01:36:22;;;;;;;30.40;17.48;;;;;;;0.54;100.00;97038.00;1023665;29;20409;-59
2021/04/13 01:37:17;;;;;;;31.73;18.08;;;;;;;0.54;100.00;97033.63;1031696;28;20026;-60
2021/04/13 01:38:02;;;;;;;28.33;16.65;;;;;;;0.52;100.00;97035.50;1031761;28;20014;-59
2021/04/13 01:38:40;;;;;;;28.95;16.83;;;;;;;0.50;100.00;97034.72;1034613;28;20391;-60
2021/04/13 01:39:14;;;;;;;28.42;17.15;;;;;;;0.48;100.00;97033.97;1039849;28;20021;-61
2021/04/13 01:40:39;;;;;;;31.20;17.85;;;;;;;0.53;100.00;97044.16;1027712;28;20069;-60
2021/04/13 01:41:28;;;;;;;27.83;17.65;;;;;;;0.43;100.00;97038.59;1023408;29;20061;-61
2021/04/13 01:42:00;;;;;;;28.83;16.50;;;;;;;0.40;100.00;97040.56;1028110;28;20440;-60
2021/04/13 01:42:31;;;;;;;30.92;17.80;;;;;;;0.39;100.00;97042.31;1023556;28;20113;-61
2021/04/13 01:43:02;;;;;;;29.95;18.10;;;;;;;0.39;100.00;97046.72;1023664;29;20015;-60
2021/04/13 01:43:36;;;;;;;31.70;19.20;;;;;;;0.43;100.00;97043.84;1027613;28;20019;-60
2021/04/13 01:44:07;;;;;;;30.75;18.15;;;;;;;0.45;100.00;97041.97;1035688;28;20527;-60
2021/04/13 01:44:49;;;;;;;30.80;19.40;;;;;;;0.46;100.00;97043.66;1023682;29;20102;-60
2021/04/13 01:45:30;;;;;;;29.50;17.33;;;;;;;0.43;100.00;97038.59;1027571;28;20029;-61
2021/04/13 01:46:00;;;;;;;31.65;18.75;;;;;;;0.44;100.00;97040.31;1027737;28;20491;-61
2021/04/13 01:46:31;;;;;;;31.00;18.05;;;;;;;0.47;100.00;97040.13;1023604;28;20027;-60
2021/04/13 01:47:02;;;;;;;32.35;19.55;;;;;;;0.43;100.00;97041.22;1029165;28;20015;-61
2021/04/13 01:47:33;;;;;;;28.98;17.90;;;;;;;0.44;100.00;97039.47;1031783;28;20017;-60
2021/04/13 01:48:05;;;;;;;31.83;19.70;;;;;;;0.46;100.00;97043.66;1023678;29;20117;-60
2021/04/13 01:48:36;;;;;;;31.73;19.40;;;;;;;0.47;100.00;97034.91;1027601;28;20389;-60
2021/04/13 01:49:07;;;;;;;31.98;19.38;;;;;;;0.45;100.00;97041.97;1027512;28;20096;-60
2021/04/13 01:49:43;;;;;;;32.75;20.00;;;;;;;0.47;100.00;97040.13;1023769;29;20416;-60
2021/04/13 01:50:18;;;;;;;34.00;19.13;;;;;;;0.45;100.00;97041.97;1024589;28;20074;-60
2021/04/13 01:50:55;;;;;;;28.95;18.95;;;;;;;0.44;100.00;97042.09;1026583;28;20046;-60
2021/04/13 01:51:26;;;;;;;32.25;18.77;;;;;;;0.45;100.00;97046.34;1030011;28;20027;-60
2021/04/13 01:51:58;;;;;;;33.15;19.20;;;;;;;0.46;100.00;97043.66;1023768;29;20171;-60
2021/04/13 01:52:37;;;;;;;32.33;19.88;;;;;;;0.47;100.00;97039.28;1019546;29;20031;-61
2021/04/13 01:53:12;;;;;;;32.58;18.65;;;;;;;0.48;100.00;97040.97;1031642;28;20026;-60
2021/04/13 01:53:45;;;;;;;32.58;18.77;;;;;;;0.46;100.00;97043.66;1035571;28;20021;-60
2021/04/13 01:54:16;;;;;;;30.63;18.80;;;;;;;0.46;100.00;97038.44;1031662;28;20026;-61
2021/04/13 01:54:47;;;;;;;32.55;18.60;;;;;;;0.48;100.00;97033.97;1019543;29;20418;-59
2021/04/13 01:55:20;;;;;;;30.77;18.80;;;;;;;0.48;100.00;97040.97;1027647;28;20142;-61
2021/04/13 01:55:53;;;;;;;32.70;18.50;;;;;;;0.43;100.00;97038.59;1031566;28;20046;-60
2021/04/13 01:56:38;;;;;;;33.45;19.20;;;;;;;0.44;100.00;97035.06;1035734;28;20404;-60
2021/04/13 01:57:13;;;;;;;31.33;19.10;;;;;;;0.43;100.00;97035.16;1027728;28;20041;-61
2021/04/13 01:58:03;;;;;;;33.33;18.70;;;;;;;0.45;100.00;97036.75;1027756;28;20405;-60
2021/04/13 01:58:36;;;;;;;31.52;18.17;;;;;;;0.41;100.00;97032.63;1027558;28;20023;-60
2021/04/13 01:59:16;;;;;;;30.60;17.73;;;;;;;0.40;100.00;97041.41;1035286;28;20435;-60
2021/04/13 01:59:56;;;;;;;31.75;18.90;;;;;;;0.40;100.00;97032.72;1027644;28;20097;-60
2021/04/13 02:00:32;;;;;;;34.63;19.50;;;;;;;0.41;100.00;97029.19;1023633;29;20019;-60
2021/04/13 02:01:13;;;;;;;30.35;17.63;;;;;;;0.44;100.00;97036.84;1023506;29;20058;-60
2021/04/13 02:01:46;;;;;;;31.45;18.60;;;;;;;0.44;100.00;97037.69;1023269;29;20019;-60
2021/04/13 02:02:30;;;;;;;31.08;17.73;;;;;;;0.45;100.00;97035.91;1024983;28;20075;-60
2021/04/13 02:03:14;;;;;;;30.90;19.05;;;;;;;0.47;100.00;97034.91;1027166;28;20425;-60
2021/04/13 02:03:49;;;;;;;34.17;18.83;;;;;;;0.44;100.00;97040.31;1031475;28;20026;-60
2021/04/13 02:04:23;;;;;;;29.10;18.52;;;;;;;0.44;100.00;97045.53;1023706;29;20027;-60
2021/04/13 02:04:56;;;;;;;32.08;18.73;;;;;;;0.38;100.00;97040.63;1023478;29;20019;-61
2021/04/13 02:05:30;;;;;;;33.22;19.95;;;;;;;0.41;100.00;97039.63;1027543;28;20098;-61
2021/04/13 02:06:08;;;;;;;31.27;19.45;;;;;;;0.42;100.00;97042.16;1035663;28;20069;-60
2021/04/13 02:06:45;;;;;;;33.15;19.30;;;;;;;0.45;100.00;97044.59;1031702;28;20534;-60
2021/04/13 02:08:07;;;;;;;36.58;19.55;;;;;;;0.46;100.00;97038.44;1023616;29;20016;-59
2021/04/13 02:08:42;;;;;;;36.30;19.48;;;;;;;0.47;100.00;97031.44;1020030;29;20464;-60
2021/04/13 02:10:30;;;;;;;35.15;19.52;;;;;;;0.46;100.00;97035.81;1023649;29;20027;-59
2021/04/13 02:11:11;;;;;;;32.92;18.70;;;;;;;0.48;100.00;97035.75;1021831;29;20186;-59
2021/04/13 02:11:42;;;;;;;33.35;19.13;;;;;;;0.48;100.00;97046.19;1027641;28;20034;-61
2021/04/13 02:12:18;;;;;;;32.90;18.50;;;;;;;0.46;100.00;97040.22;1027599;28;20073;-61
2021/04/13 02:12:51;;;;;;;33.28;19.67;;;;;;;0.46;100.00;97033.22;1031579;28;20085;-61
2021/04/13 02:13:33;;;;;;;30.83;19.70;;;;;;;0.48;100.00;97041.81;1027493;28;20030;-60
2021/04/13 02:14:08;;;;;;;32.33;18.92;;;;;;;0.48;100.00;97040.97;1032969;28;20069;-63
2021/04/13 02:14:44;;;;;;;34.17;20.02;;;;;;;0.42;100.00;97034.31;1031621;28;20018;-61
2021/04/13 02:15:28;;;;;;;32.25;18.75;;;;;;;0.43;100.00;97037.78;1023421;29;20482;-60
2021/04/13 02:16:10;;;;;;;34.97;19.30;;;;;;;0.45;100.00;97035.91;1019661;29;20020;-60
2021/04/13 02:16:52;;;;;;;31.63;18.48;;;;;;;0.44;100.00;97040.31;1027609;28;20018;-60
2021/04/13 02:17:28;;;;;;;32.60;19.08;;;;;;;0.45;100.00;97036.75;1027566;28;20019;-60
2021/04/13 02:18:01;;;;;;;34.40;20.25;;;;;;;0.44;100.00;97029.84;1015655;29;20496;-60
2021/04/13 02:18:47;;;;;;;32.42;19.27;;;;;;;0.40;100.00;97030.97;1027544;28;20015;-60
2021/04/13 02:19:18;;;;;;;32.70;18.90;;;;;;;0.46;100.00;97037.59;1031583;28;20180;-60
2021/04/13 02:19:49;;;;;;;36.15;19.88;;;;;;;0.45;100.00;97047.19;1027479;28;20476;-59
2021/04/13 02:20:26;;;;;;;34.78;19.70;;;;;;;0.42;100.00;97046.53;1023579;29;20176;-60
2021/04/13 02:20:57;;;;;;;33.75;19.45;;;;;;;0.37;100.00;97047.63;1019605;29;20032;-59
2021/04/13 02:21:32;;;;;;;34.78;19.73;;;;;;;0.39;100.00;97046.72;1035634;28;20033;-60
2021/04/13 02:22:06;;;;;;;33.08;20.20;;;;;;;0.34;100.00;97039.13;1031549;28;20022;-61
2021/04/13 02:22:44;;;;;;;34.17;20.05;;;;;;;0.32;100.00;97041.00;1019681;28;20535;-60
2021/04/13 02:23:20;;;;;;;36.03;21.15;;;;;;;0.30;100.00;97048.91;1023647;29;20030;-60
2021/04/13 02:23:53;;;;;;;35.85;20.35;;;;;;;0.30;100.00;97048.91;1024074;28;20504;-60
2021/04/13 02:24:29;;;;;;;36.75;20.23;;;;;;;0.27;100.00;97048.25;1029665;28;20022;-60
2021/04/13 02:25:01;;;;;;;31.52;19.05;;;;;;;0.30;100.00;97045.47;1031518;28;20082;-58
2021/04/13 02:25:34;;;;;;;33.10;20.58;;;;;;;0.30;100.00;97040.25;1023578;29;20110;-61
2021/04/13 02:26:05;;;;;;;37.08;20.75;;;;;;;0.31;100.00;97042.75;1023581;29;20043;-60
2021/04/13 02:26:45;;;;;;;34.10;20.20;;;;;;;0.34;100.00;97045.19;1035602;28;20510;-61
2021/04/13 02:27:19;;;;;;;33.30;19.65;;;;;;;0.35;100.00;97040.81;1039713;28;20037;-61
2021/04/13 02:27:49;;;;;;;34.80;20.38;;;;;;;0.37;100.00;97038.97;1031532;28;20592;-60
2021/04/13 02:28:20;;;;;;;34.05;20.63;;;;;;;0.38;100.00;97045.84;1029402;28;20111;-61
2021/04/13 02:28:51;;;;;;;36.00;21.40;;;;;;;0.35;100.00;97048.66;1028230;28;20023;-60
2021/04/13 02:29:33;;;;;;;33.35;20.00;;;;;;;0.36;100.00;97045.09;1027577;28;20041;-60
2021/04/13 02:30:07;;;;;;;38.65;22.40;;;;;;;0.27;100.00;97043.00;1023509;29;20015;-59
2021/04/13 02:30:41;;;;;;;39.88;22.27;;;;;;;0.22;100.00;97037.19;1027584;28;20018;-60
2021/04/13 02:31:14;;;;;;;35.50;20.33;;;;;;;0.26;100.00;97041.31;1027458;28;20480;-60
2021/04/13 02:31:52;;;;;;;39.15;21.42;;;;;;;0.28;100.00;97040.31;1020975;28;20008;-61
2021/04/13 02:32:26;;;;;;;36.20;21.05;;;;;;;0.32;100.00;97043.59;1029421;28;20047;-61
2021/04/13 02:32:57;;;;;;;33.88;20.17;;;;;;;0.32;100.00;97044.44;1037623;28;20014;-59
2021/04/13 02:33:32;;;;;;;36.10;21.00;;;;;;;0.34;100.00;97044.34;1035559;28;20022;-60
2021/04/13 02:34:10;;;;;;;38.05;21.27;;;;;;;0.35;100.00;97040.81;1027559;28;20090;-59
2021/04/13 02:34:45;;;;;;;38.20;21.45;;;;;;;0.37;100.00;97045.03;1027626;28;20158;-60
2021/04/13 02:35:19;;;;;;;33.92;20.63;;;;;;;0.35;100.00;97043.44;1027350;28;20109;-60
2021/04/13 02:35:52;;;;;;;39.95;21.63;;;;;;;0.33;100.00;97042.66;1031566;28;20091;-60
2021/04/13 02:36:32;;;;;;;33.90;19.92;;;;;;;0.34;100.00;97042.56;1023470;29;20027;-61
2021/04/13 02:37:16;;;;;;;35.83;20.73;;;;;;;0.29;100.00;97041.16;1023538;29;20067;-60
2021/04/13 02:37:50;;;;;;;36.60;20.80;;;;;;;0.31;100.00;97040.13;1023066;29;20521;-60
2021/04/13 02:38:24;;;;;;;35.85;20.95;;;;;;;0.27;100.00;97041.22;1019505;29;20123;-61
2021/04/13 02:38:55;;;;;;;38.58;21.73;;;;;;;0.32;100.00;97041.00;1023571;29;20015;-60
2021/04/13 02:39:29;;;;;;;32.38;20.35;;;;;;;0.35;100.00;97040.81;1027523;28;20582;-61
2021/04/13 02:40:15;;;;;;;37.08;21.13;;;;;;;0.31;100.00;97040.13;1035633;28;20490;-60
2021/04/13 02:41:06;;;;;;;36.67;20.75;;;;;;;0.32;100.00;97046.22;1031537;28;20034;-60
2021/04/13 02:41:41;;;;;;;34.30;20.35;;;;;;;0.34;100.00;97041.75;1034510;28;20024;-61
2021/04/13 02:42:17;;;;;;;37.38;21.63;;;;;;;0.32;100.00;97035.75;1027557;28;20018;-60
2021/04/13 02:42:49;;;;;;;36.75;21.02;;;;;;;0.35;100.00;97041.66;1027331;28;20440;-61
2021/04/13 02:43:31;;;;;;;35.03;20.45;;;;;;;0.36;100.00;97047.72;1027525;28;20122;-60
2021/04/13 02:44:06;;;;;;;33.92;20.13;;;;;;;0.34;100.00;97042.56;1027526;28;20026;-60
2021/04/13 02:44:41;;;;;;;34.70;19.55;;;;;;;0.32;100.00;97046.22;1023493;29;20486;-61
2021/04/13 02:45:22;;;;;;;37.97;21.60;;;;;;;0.31;100.00;97047.13;1019532;29;20028;-61
2021/04/13 02:45:56;;;;;;;37.17;21.25;;;;;;;0.29;100.00;97047.22;1031592;28;20121;-60
2021/04/13 02:46:28;;;;;;;39.08;21.65;;;;;;;0.28;100.00;97052.53;1031558;28;20026;-60
2021/04/13 02:47:02;;;;;;;39.25;22.10;;;;;;;0.22;100.00;97042.44;1019585;29;20152;-60
2021/04/13 02:47:37;;;;;;;41.17;21.95;;;;;;;0.21;100.00;97048.56;1028403;28;20026;-60
2021/04/13 02:48:12;;;;;;;41.35;22.75;;;;;;;0.16;100.00;97051.44;1024574;29;20050;-60
2021/04/13 02:48:45;;;;;;;42.38;22.08;;;;;;;0.18;100.00;97050.44;1024328;28;20470;-60